createdAt,value
2022-11-19T00:01:10.877Z,9.90
2022-11-19T00:03:38.708Z,9.45
2022-11-19T00:06:06.961Z,9.10
2022-11-19T00:08:33.831Z,9.27
2022-11-19T00:11:10.072Z,9.25
2022-11-19T00:13:37.626Z,9.40
2022-11-19T00:16:15.117Z,9.18
2022-11-19T00:18:41.662Z,9.50
2022-11-19T00:21:10.607Z,9.35
2022-11-19T00:23:38.032Z,9.10
2022-11-19T00:26:12.905Z,9.70
2022-11-19T00:28:40.122Z,9.07
2022-11-19T00:31:08.968Z,9.15
2022-11-19T00:33:36.356Z,8.55
2022-11-19T00:36:05.495Z,8.98
2022-11-19T00:38:32.575Z,9.38
2022-11-19T00:40:59.562Z,8.80
2022-11-19T00:43:44.768Z,8.80
2022-11-19T00:46:11.978Z,9.45
2022-11-19T00:48:39.270Z,9.23
2022-11-19T00:51:07.510Z,8.98
2022-11-19T00:53:34.628Z,9.15
2022-11-19T00:56:02.812Z,9.45
2022-11-19T00:58:29.645Z,9.20
2022-11-19T01:00:56.756Z,9.55
2022-11-19T01:03:24.457Z,8.63
2022-11-19T01:05:51.275Z,9.77
2022-11-19T01:08:18.536Z,9.43
2022-11-19T01:10:45.787Z,9.25
2022-11-19T01:13:31.399Z,10.07
2022-11-19T01:15:58.065Z,10.80
2022-11-19T01:18:24.629Z,10.13
2022-11-19T01:20:51.101Z,10.48
2022-11-19T01:23:17.809Z,10.45
2022-11-19T01:25:44.432Z,10.45
2022-11-19T01:28:10.927Z,9.93
2022-11-19T01:30:41.186Z,10.10
2022-11-19T01:33:08.079Z,9.43
2022-11-19T01:35:34.838Z,10.70
2022-11-19T01:38:02.271Z,10.32
2022-11-19T01:40:29.188Z,10.25
2022-11-19T01:42:55.751Z,11.65
2022-11-19T01:45:38.214Z,9.93
2022-11-19T01:48:10.188Z,10.13
2022-11-19T01:50:40.722Z,10.77
2022-11-19T01:53:09.410Z,10.90
2022-11-19T01:58:03.963Z,10.10
2022-11-19T02:00:30.569Z,10.98
2022-11-19T02:02:57.031Z,11.40
2022-11-19T02:05:24.697Z,11.00
2022-11-19T02:07:56.805Z,10.68
2022-11-19T02:10:39.281Z,11.32
2022-11-19T02:13:27.656Z,10.90
2022-11-19T02:16:01.064Z,11.65
2022-11-19T02:18:38.028Z,10.25
2022-11-19T02:21:12.377Z,10.68
2022-11-19T02:24:00.125Z,11.57
2022-11-19T02:26:50.371Z,12.77
2022-11-19T02:29:46.251Z,12.20
2022-11-19T02:32:15.453Z,11.85
2022-11-19T02:34:52.541Z,11.57
2022-11-19T02:37:28.568Z,11.80
2022-11-19T02:40:09.133Z,11.25
2022-11-19T02:42:51.054Z,11.00
2022-11-19T02:45:35.717Z,13.02
2022-11-19T02:48:11.061Z,12.68
2022-11-19T02:50:48.740Z,12.57
2022-11-19T02:53:15.255Z,13.65
2022-11-19T02:55:41.871Z,13.02
2022-11-19T02:58:37.484Z,12.30
2022-11-19T03:01:24.952Z,12.75
2022-11-19T03:04:12.717Z,12.25
2022-11-19T03:06:39.855Z,13.10
2022-11-19T03:09:06.452Z,13.32
2022-11-19T03:11:33.396Z,13.85
2022-11-19T03:14:40.379Z,12.57
2022-11-19T03:17:30.711Z,12.95
2022-11-19T03:20:04.558Z,13.88
2022-11-19T03:22:39.277Z,12.40
2022-11-19T03:25:12.272Z,13.70
2022-11-19T03:27:42.375Z,12.88
2022-11-19T03:30:11.169Z,13.00
2022-11-19T03:32:46.690Z,13.25
2022-11-19T03:35:22.636Z,13.77
2022-11-19T03:37:52.793Z,13.23
2022-11-19T03:40:22.252Z,12.68
2022-11-19T03:42:52.450Z,12.35
2022-11-19T03:45:25.978Z,13.18
2022-11-19T03:47:55.031Z,12.65
2022-11-19T03:50:29.268Z,14.30
2022-11-19T03:53:03.859Z,12.35
2022-11-19T03:55:45.519Z,14.25
2022-11-19T03:58:12.477Z,13.30
2022-11-19T04:00:38.996Z,12.13
2022-11-19T04:03:05.667Z,11.77
2022-11-19T04:05:32.160Z,12.00
2022-11-19T04:07:58.634Z,11.07
2022-11-19T04:10:25.257Z,13.18
2022-11-19T04:12:51.793Z,12.10
2022-11-19T04:15:18.433Z,11.95
2022-11-19T04:17:45.075Z,11.48
2022-11-19T04:20:11.948Z,11.43
2022-11-19T04:22:38.611Z,12.13
2022-11-19T04:25:05.691Z,11.88
2022-11-19T04:27:32.228Z,11.45
2022-11-19T04:29:58.734Z,12.75
2022-11-19T04:32:25.267Z,11.90
2022-11-19T04:34:51.855Z,11.27
2022-11-19T04:37:18.407Z,11.68
2022-11-19T04:39:45.044Z,11.25
2022-11-19T04:42:11.534Z,10.85
2022-11-19T04:44:38.076Z,12.57
2022-11-19T04:47:04.547Z,11.77
2022-11-19T04:49:31.023Z,12.23
2022-11-19T04:51:57.522Z,12.45
2022-11-19T04:54:24.077Z,11.95
2022-11-19T04:56:50.723Z,11.02
2022-11-19T04:59:17.539Z,11.07
2022-11-19T05:01:44.865Z,11.05
2022-11-19T05:04:11.496Z,11.63
2022-11-19T05:06:38.594Z,11.15
2022-11-19T05:09:05.141Z,11.82
2022-11-19T05:11:31.669Z,11.40
2022-11-19T05:13:58.171Z,11.32
2022-11-19T05:16:24.739Z,11.82
2022-11-19T05:18:51.447Z,12.88
2022-11-19T05:21:17.946Z,13.30
2022-11-19T05:23:44.440Z,11.38
2022-11-19T05:26:10.820Z,11.15
2022-11-19T05:28:39.655Z,11.07
2022-11-19T05:31:07.528Z,10.98
2022-11-19T05:33:34.683Z,11.48
2022-11-19T05:36:01.768Z,11.32
2022-11-19T05:38:28.270Z,11.43
2022-11-19T05:40:54.872Z,12.55
2022-11-19T05:43:21.402Z,11.13
2022-11-19T05:45:47.872Z,11.50
2022-11-19T05:48:15.295Z,11.93
2022-11-19T05:50:42.822Z,11.20
2022-11-19T05:53:09.893Z,10.98
2022-11-19T05:55:36.668Z,11.32
2022-11-19T05:58:03.560Z,11.93
2022-11-19T06:00:30.070Z,10.73
2022-11-19T06:02:56.617Z,12.60
2022-11-19T06:05:23.064Z,11.30
2022-11-19T06:07:49.625Z,12.45
2022-11-19T06:10:16.202Z,11.30
2022-11-19T06:12:45.960Z,11.30
2022-11-19T06:15:13.319Z,11.15
2022-11-19T06:17:39.898Z,11.63
2022-11-19T06:20:08.842Z,10.75
2022-11-19T06:22:36.381Z,10.98
2022-11-19T06:25:04.284Z,10.95
2022-11-19T06:27:30.812Z,10.32
2022-11-19T06:29:57.448Z,10.32
2022-11-19T06:32:24.141Z,10.93
2022-11-19T06:34:50.627Z,10.43
2022-11-19T06:37:17.256Z,10.63
2022-11-19T06:39:43.853Z,10.50
2022-11-19T06:42:28.718Z,10.40
2022-11-19T06:44:55.142Z,10.10
2022-11-19T06:47:21.674Z,10.68
2022-11-19T06:49:48.141Z,9.85
2022-11-19T06:52:14.605Z,9.85
2022-11-19T06:54:43.320Z,11.45
2022-11-19T06:57:10.393Z,12.07
2022-11-19T06:59:38.997Z,11.02
2022-11-19T07:04:32.691Z,9.45
2022-11-19T07:06:59.462Z,10.77
2022-11-19T07:09:25.951Z,10.27
2022-11-19T07:11:52.453Z,11.43
2022-11-19T07:14:18.972Z,12.20
2022-11-19T07:16:45.474Z,10.32
2022-11-19T07:19:12.361Z,11.73
2022-11-19T07:21:39.175Z,11.75
2022-11-19T07:24:08.407Z,10.35
2022-11-19T07:26:36.122Z,9.82
2022-11-19T07:29:05.576Z,10.88
2022-11-19T07:31:33.375Z,11.13
2022-11-19T07:34:00.497Z,10.60
2022-11-19T07:36:27.076Z,11.35
2022-11-19T07:38:53.553Z,12.05
2022-11-19T07:41:38.592Z,10.65
2022-11-19T07:44:05.349Z,10.77
2022-11-19T07:46:31.943Z,10.10
2022-11-19T07:48:59.230Z,10.93
2022-11-19T07:51:26.439Z,11.55
2022-11-19T07:53:53.490Z,10.73
2022-11-19T07:56:20.655Z,10.32
2022-11-19T07:58:47.410Z,10.57
2022-11-19T08:01:19.358Z,10.07
2022-11-19T08:03:51.864Z,11.88
2022-11-19T08:06:22.409Z,11.65
2022-11-19T08:08:48.950Z,10.95
2022-11-19T08:11:16.676Z,10.77
2022-11-19T08:13:43.587Z,10.02
2022-11-19T08:16:13.717Z,9.93
2022-11-19T08:18:40.290Z,10.57
2022-11-19T08:21:09.561Z,10.98
2022-11-19T08:23:37.346Z,11.07
2022-11-19T08:26:06.275Z,10.07
2022-11-19T08:28:33.896Z,10.13
2022-11-19T08:31:07.720Z,10.73
2022-11-19T08:33:35.082Z,10.68
2022-11-19T08:36:01.773Z,10.02
2022-11-19T08:38:28.386Z,10.60
2022-11-19T08:41:15.018Z,9.63
2022-11-19T08:43:42.034Z,10.52
2022-11-19T08:46:08.994Z,10.38
2022-11-19T08:48:35.471Z,9.88
2022-11-19T08:51:07.206Z,9.70
2022-11-19T08:53:34.037Z,9.52
2022-11-19T08:56:00.594Z,10.27
2022-11-19T08:58:27.138Z,9.27
2022-11-19T09:00:54.847Z,8.98
2022-11-19T09:03:21.700Z,8.90
2022-11-19T09:05:48.514Z,9.38
2022-11-19T09:08:14.968Z,9.70
2022-11-19T09:10:41.492Z,8.85
2022-11-19T09:13:08.001Z,8.77
2022-11-19T09:15:35.620Z,8.88
2022-11-19T09:18:02.119Z,9.10
2022-11-19T09:20:28.581Z,8.80
2022-11-19T09:22:55.052Z,8.75
2022-11-19T09:25:21.560Z,9.15
2022-11-19T09:27:48.100Z,8.73
2022-11-19T09:30:15.008Z,8.43
2022-11-19T09:32:41.526Z,9.40
2022-11-19T09:35:08.411Z,9.07
2022-11-19T09:37:36.245Z,8.23
2022-11-19T09:40:04.687Z,8.38
2022-11-19T09:42:31.047Z,7.88
2022-11-19T09:45:28.831Z,8.63
2022-11-19T09:48:13.711Z,7.03
2022-11-19T09:51:00.122Z,7.53
2022-11-19T09:53:32.116Z,7.43
2022-11-19T09:56:00.461Z,8.02
2022-11-19T09:58:42.989Z,7.93
2022-11-19T10:01:17.809Z,7.43
2022-11-19T10:03:50.445Z,7.60
2022-11-19T10:06:27.766Z,8.40
2022-11-19T10:09:34.671Z,7.78
2022-11-19T10:12:23.222Z,6.82
2022-11-19T10:14:58.942Z,7.53
2022-11-19T10:17:34.077Z,7.15
2022-11-19T10:20:08.873Z,7.38
2022-11-19T10:22:43.284Z,9.23
2022-11-19T10:25:23.046Z,7.97
2022-11-19T10:27:57.572Z,7.13
2022-11-19T10:30:26.859Z,7.53
2022-11-19T10:32:56.306Z,6.13
2022-11-19T10:35:33.509Z,6.65
2022-11-19T10:38:04.189Z,7.57
2022-11-19T10:40:47.411Z,6.60
2022-11-19T10:43:30.520Z,6.93
2022-11-19T10:46:00.005Z,6.25
2022-11-19T10:48:35.408Z,6.30
2022-11-19T10:51:05.354Z,6.28
2022-11-19T10:53:38.123Z,6.18
2022-11-19T10:56:12.303Z,6.63
2022-11-19T10:58:41.636Z,6.82
2022-11-19T11:01:34.450Z,7.50
2022-11-19T11:04:22.376Z,7.65
2022-11-19T11:07:03.791Z,6.55
2022-11-19T11:09:43.692Z,6.53
2022-11-19T11:12:38.232Z,6.45
2022-11-19T11:15:19.726Z,6.88
2022-11-19T11:17:47.622Z,7.00
2022-11-19T11:20:14.058Z,6.18
2022-11-19T11:22:40.663Z,6.43
2022-11-19T11:25:22.116Z,6.80
2022-11-19T11:28:12.291Z,7.97
2022-11-19T11:30:52.340Z,6.72
2022-11-19T11:33:26.073Z,5.97
2022-11-19T11:35:59.607Z,6.90
2022-11-19T11:38:27.466Z,7.25
2022-11-19T11:41:31.531Z,5.57
2022-11-19T11:44:01.776Z,5.93
2022-11-19T11:46:49.960Z,5.72
2022-11-19T11:49:37.670Z,6.30
2022-11-19T11:52:09.486Z,6.18
2022-11-19T11:54:53.626Z,6.65
2022-11-19T11:57:23.715Z,6.22
2022-11-19T11:59:50.289Z,5.60
2022-11-19T12:02:27.896Z,5.95
2022-11-19T12:04:55.859Z,6.00
2022-11-19T12:07:22.346Z,6.28
2022-11-19T12:10:03.685Z,6.07
2022-11-19T12:12:56.349Z,6.07
2022-11-19T12:15:36.329Z,5.90
2022-11-19T12:18:16.157Z,6.22
2022-11-19T12:21:08.761Z,5.00
2022-11-19T12:24:02.562Z,4.97
2022-11-19T12:26:44.377Z,5.20
2022-11-19T12:29:32.503Z,5.25
2022-11-19T12:32:02.015Z,5.30
2022-11-19T12:34:55.998Z,4.47
2022-11-19T12:38:00.240Z,4.97
2022-11-19T12:40:40.530Z,4.68
2022-11-19T12:43:20.071Z,4.03
2022-11-19T12:46:22.089Z,4.82
2022-11-19T12:49:00.616Z,4.57
2022-11-19T12:51:59.287Z,4.20
2022-11-19T12:54:35.341Z,4.57
2022-11-19T12:57:11.475Z,4.78
2022-11-19T13:00:04.409Z,4.53
2022-11-19T13:02:40.342Z,4.53
2022-11-19T13:05:50.214Z,4.18
2022-11-19T13:08:20.718Z,4.30
2022-11-19T13:11:00.093Z,4.43
2022-11-19T13:13:29.681Z,4.30
2022-11-19T13:16:07.073Z,4.15
2022-11-19T13:18:36.869Z,3.97
2022-11-19T13:21:07.505Z,3.97
2022-11-19T13:23:47.159Z,3.88
2022-11-19T13:26:18.408Z,4.13
2022-11-19T13:29:37.229Z,4.25
2022-11-19T13:32:42.547Z,3.60
2022-11-19T13:35:36.908Z,3.38
2022-11-19T13:38:17.354Z,3.40
2022-11-19T13:41:08.747Z,3.60
2022-11-19T13:43:53.870Z,3.22
2022-11-19T13:46:25.722Z,3.33
2022-11-19T13:49:14.093Z,3.30
2022-11-19T13:51:45.110Z,3.47
2022-11-19T13:54:29.353Z,3.30
2022-11-19T13:56:58.195Z,3.33
2022-11-19T13:59:36.943Z,3.30
2022-11-19T14:02:29.959Z,3.20
2022-11-19T14:05:02.304Z,3.17
2022-11-19T14:07:31.174Z,3.70
2022-11-19T14:10:39.248Z,3.38
2022-11-19T14:13:11.770Z,3.20
2022-11-19T14:16:30.868Z,3.28
2022-11-19T14:19:20.524Z,3.33
2022-11-19T14:22:08.015Z,3.33
2022-11-19T14:24:53.963Z,3.42
2022-11-19T14:27:30.460Z,3.35
2022-11-19T14:30:06.555Z,3.22
2022-11-19T14:32:39.927Z,3.20
2022-11-19T14:35:30.183Z,3.28
2022-11-19T14:38:33.349Z,3.35
2022-11-19T14:41:17.767Z,3.17
2022-11-19T14:44:22.701Z,3.28
2022-11-19T14:46:49.493Z,3.38
2022-11-19T14:49:31.930Z,3.30
2022-11-19T14:51:59.017Z,3.50
2022-11-19T14:54:31.913Z,3.30
2022-11-19T14:57:16.051Z,3.22
2022-11-19T14:59:48.630Z,5.55
2022-11-19T15:02:29.462Z,6.50
2022-11-19T15:05:27.019Z,5.72
2022-11-19T15:08:18.371Z,4.10
2022-11-19T15:10:47.943Z,3.85
2022-11-19T15:13:18.559Z,4.13
2022-11-19T15:15:47.691Z,4.05
2022-11-19T15:18:24.930Z,4.20
2022-11-19T15:21:19.134Z,3.30
2022-11-19T15:24:14.620Z,3.67
2022-11-19T15:26:41.014Z,3.53
2022-11-19T15:29:07.515Z,4.20
2022-11-19T15:31:43.067Z,4.15
2022-11-19T15:35:04.016Z,4.03
2022-11-19T15:37:39.409Z,4.10
2022-11-19T15:40:11.155Z,4.03
2022-11-19T15:43:01.803Z,3.97
2022-11-19T15:45:33.707Z,4.05
2022-11-19T15:48:06.159Z,3.85
2022-11-19T15:50:32.951Z,4.10
2022-11-19T15:53:29.529Z,3.78
2022-11-19T15:55:58.600Z,4.30
2022-11-19T15:58:39.660Z,3.83
2022-11-19T16:03:38.470Z,3.83
2022-11-19T16:06:20.089Z,3.70
2022-11-19T16:09:00.347Z,3.55
2022-11-19T16:11:48.399Z,3.65
2022-11-19T16:14:44.544Z,4.00
2022-11-19T16:17:43.585Z,3.92
2022-11-19T16:20:10.736Z,3.75
2022-11-19T16:22:45.317Z,5.35
2022-11-19T16:25:32.782Z,4.30
2022-11-19T16:28:04.574Z,4.45
2022-11-19T16:30:40.590Z,4.22
2022-11-19T16:33:13.791Z,4.07
2022-11-19T16:35:40.383Z,3.85
2022-11-19T16:38:15.535Z,3.90
2022-11-19T16:41:03.073Z,3.75
2022-11-19T16:43:30.440Z,3.97
2022-11-19T16:45:58.011Z,3.72
2022-11-19T16:48:43.017Z,4.72
2022-11-19T16:51:28.348Z,4.15
2022-11-19T16:53:54.900Z,4.53
2022-11-19T16:56:22.397Z,4.30
2022-11-19T16:58:51.943Z,5.15
2022-11-19T17:01:19.174Z,8.15
2022-11-19T17:03:45.872Z,13.15
2022-11-19T17:06:25.596Z,15.55
2022-11-19T17:08:57.750Z,15.60
2022-11-19T17:11:58.122Z,9.60
2022-11-19T17:14:30.446Z,7.43
2022-11-19T17:16:57.574Z,7.40
2022-11-19T17:19:25.787Z,9.73
2022-11-19T17:22:05.085Z,9.25
2022-11-19T17:24:40.536Z,9.57
2022-11-19T17:27:07.218Z,13.98
2022-11-19T17:29:33.826Z,10.63
2022-11-19T17:32:03.396Z,7.47
2022-11-19T17:34:33.585Z,6.07
2022-11-19T17:37:00.448Z,6.03
2022-11-19T17:39:27.054Z,5.45
2022-11-19T17:42:14.541Z,4.45
2022-11-19T17:44:41.415Z,4.38
2022-11-19T17:47:21.117Z,4.38
2022-11-19T17:52:28.257Z,4.43
2022-11-19T17:55:03.109Z,4.00
2022-11-19T17:57:29.635Z,4.05
2022-11-19T17:59:56.212Z,4.13
2022-11-19T18:02:29.195Z,3.83
2022-11-19T18:04:55.701Z,4.20
2022-11-19T18:07:29.768Z,4.10
2022-11-19T18:10:01.883Z,4.40
2022-11-19T18:12:30.254Z,4.25
2022-11-19T18:15:00.802Z,4.32
2022-11-19T18:17:28.934Z,4.00
2022-11-19T18:19:55.406Z,4.00
2022-11-19T18:22:21.993Z,4.03
2022-11-19T18:24:50.078Z,4.38
2022-11-19T18:27:17.207Z,4.32
2022-11-19T18:29:44.080Z,5.10
2022-11-19T18:32:12.172Z,5.05
2022-11-19T18:34:38.714Z,4.95
2022-11-19T18:37:05.133Z,5.22
2022-11-19T18:39:31.606Z,5.35
2022-11-19T18:41:58.131Z,6.05
2022-11-19T18:44:33.930Z,5.30
2022-11-19T18:49:35.151Z,5.13
2022-11-19T18:52:07.583Z,5.20
2022-11-19T18:54:34.143Z,6.13
2022-11-19T18:57:01.136Z,5.50
2022-11-19T18:59:28.100Z,5.40
2022-11-19T19:01:55.896Z,6.07
2022-11-19T19:04:23.190Z,5.93
2022-11-19T19:06:50.090Z,5.75
2022-11-19T19:09:20.364Z,6.13
2022-11-19T19:12:12.701Z,5.32
2022-11-19T19:14:40.154Z,6.57
2022-11-19T19:17:06.614Z,6.22
2022-11-19T19:19:33.142Z,6.60
2022-11-19T19:22:00.507Z,6.25
2022-11-19T19:24:27.016Z,5.40
2022-11-19T19:26:53.690Z,5.13
2022-11-19T19:29:20.497Z,4.97
2022-11-19T19:31:47.288Z,5.30
2022-11-19T19:34:13.876Z,5.60
2022-11-19T19:36:40.392Z,4.78
2022-11-19T19:39:06.894Z,4.63
2022-11-19T19:41:33.635Z,4.80
2022-11-19T19:44:05.031Z,4.93
2022-11-19T19:46:32.619Z,6.13
2022-11-19T19:48:59.163Z,9.02
2022-11-19T19:51:28.544Z,7.65
2022-11-19T19:53:56.066Z,6.78
2022-11-19T19:56:28.174Z,6.68
2022-11-19T19:58:55.878Z,6.00
2022-11-19T20:01:25.068Z,5.90
2022-11-19T20:03:54.678Z,5.95
2022-11-19T20:06:23.399Z,6.57
2022-11-19T20:08:50.219Z,5.68
2022-11-19T20:11:24.551Z,13.10
2022-11-19T20:13:52.717Z,12.02
2022-11-19T20:16:24.411Z,6.72
2022-11-19T20:18:52.109Z,6.18
2022-11-19T20:21:24.796Z,7.20
2022-11-19T20:23:51.906Z,7.30
2022-11-19T20:26:21.260Z,7.03
2022-11-19T20:28:48.713Z,6.30
2022-11-19T20:31:17.690Z,5.82
2022-11-19T20:33:45.596Z,6.38
2022-11-19T20:36:14.798Z,6.07
2022-11-19T20:38:44.253Z,13.40
2022-11-19T20:41:32.755Z,7.93
2022-11-19T20:44:19.438Z,8.23
2022-11-19T20:47:03.402Z,7.43
2022-11-19T20:49:41.800Z,7.93
2022-11-19T20:52:08.801Z,11.48
2022-11-19T20:54:35.697Z,8.30
2022-11-19T20:57:02.601Z,8.75
2022-11-19T20:59:29.553Z,8.48
2022-11-19T21:01:57.322Z,7.78
2022-11-19T21:04:25.738Z,7.47
2022-11-19T21:06:53.845Z,8.30
2022-11-19T21:09:20.738Z,8.32
2022-11-19T21:11:47.744Z,8.70
2022-11-19T21:14:14.691Z,9.63
2022-11-19T21:16:41.294Z,9.13
2022-11-19T21:19:09.430Z,8.48
2022-11-19T21:21:35.953Z,7.30
2022-11-19T21:24:02.420Z,7.00
2022-11-19T21:26:29.687Z,7.63
2022-11-19T21:28:58.330Z,8.15
2022-11-19T21:31:38.348Z,8.70
2022-11-19T21:34:06.775Z,10.50
2022-11-19T21:36:33.444Z,8.20
2022-11-19T21:39:00.002Z,9.07
2022-11-19T21:41:26.480Z,8.43
2022-11-19T21:43:52.882Z,8.25
2022-11-19T21:46:19.277Z,7.57
2022-11-19T21:48:45.762Z,8.95
2022-11-19T21:51:12.221Z,8.73
2022-11-19T21:53:38.622Z,8.23
2022-11-19T21:56:05.778Z,8.98
2022-11-19T21:58:32.273Z,8.82
2022-11-19T22:01:00.244Z,7.88
2022-11-19T22:03:28.551Z,9.20
2022-11-19T22:06:03.322Z,9.50
2022-11-19T22:08:31.048Z,10.02
2022-11-19T22:10:58.090Z,9.80
2022-11-19T22:13:24.936Z,8.93
2022-11-19T22:15:59.095Z,8.55
2022-11-19T22:18:25.587Z,9.82
2022-11-19T22:21:02.197Z,9.95
2022-11-19T22:23:29.091Z,10.15
2022-11-19T22:25:56.469Z,10.32
2022-11-19T22:28:23.116Z,9.98
2022-11-19T22:30:53.846Z,8.65
2022-11-19T22:33:20.684Z,8.50
2022-11-19T22:35:47.584Z,8.93
2022-11-19T22:38:15.271Z,9.55
2022-11-19T22:40:41.789Z,8.73
2022-11-19T22:43:08.421Z,8.63
2022-11-19T22:45:34.975Z,9.02
2022-11-19T22:48:01.499Z,9.73
2022-11-19T22:50:28.023Z,9.90
2022-11-19T22:52:54.620Z,9.77
2022-11-19T22:55:21.104Z,9.60
2022-11-19T22:57:47.648Z,9.43
2022-11-19T23:00:40.393Z,8.60
2022-11-19T23:03:07.442Z,9.43
2022-11-19T23:05:37.157Z,9.43
2022-11-19T23:08:06.031Z,9.48
2022-11-19T23:10:33.625Z,8.90
2022-11-19T23:13:19.800Z,8.20
2022-11-19T23:16:17.003Z,9.02
2022-11-19T23:18:49.172Z,9.68
2022-11-19T23:21:19.155Z,9.27
2022-11-19T23:23:45.939Z,9.60
2022-11-19T23:26:14.399Z,8.32
2022-11-19T23:28:41.012Z,9.32
2022-11-19T23:31:14.412Z,9.02
2022-11-19T23:33:41.898Z,8.52
2022-11-19T23:36:11.899Z,10.45
2022-11-19T23:38:39.540Z,8.57
2022-11-19T23:41:09.110Z,9.68
2022-11-19T23:43:36.555Z,10.32
2022-11-19T23:46:05.084Z,10.27
2022-11-19T23:48:32.459Z,9.57
2022-11-19T23:51:08.126Z,8.93
2022-11-19T23:53:34.751Z,10.13
2022-11-19T23:56:01.828Z,9.20
2022-11-19T23:58:28.708Z,9.77
